Time;durP1;ratioP1;P1;durP2;ratioP2;P2;SDS_P1;SDS_P2;PMS_P1;PMS_P2;Temp;Humidity;BMP_temperature;BMP_pressure;BME280_temperature;BME280_humidity;BME280_pressure;Samples;Min_cycle;Max_cycle;Signal;HPM_P1;HPM_P2
2023/07/12 00:00:32;;;;;;;;;;;;;;;23.39;68.87;97885.44;4997400;28;19981;-60
2023/07/12 00:03:22;;;;;;;;;;;;;;;23.24;69.47;97894.94;5000228;28;19929;-58
2023/07/12 00:06:12;;;;;;;;;;;;;;;23.13;69.51;97899.69;5006665;28;20016;-61
2023/07/12 00:09:00;;;;;;;;;;;;;;;23.22;69.47;97900.06;5004404;28;19941;-66
2023/07/12 00:11:50;;;;;;;;;;;;;;;23.27;69.48;97906.00;5002625;28;20425;-61
2023/07/12 00:14:38;;;;;;;;;;;;;;;23.15;69.95;97903.63;5006306;28;20763;-60
2023/07/12 00:17:27;;;;;;;;;;;;;;;23.07;70.66;97898.50;5000648;28;19933;-63
2023/07/12 00:20:24;;;;;;;;;;;;;;;23.09;70.74;97887.78;4995697;28;19968;-58
2023/07/12 00:23:12;;;;;;;;;;;;;;;22.88;70.88;97877.47;4996938;28;20019;-59
2023/07/12 00:26:01;;;;;;;;;;;;;;;22.97;70.37;97864.81;5004067;28;19929;-59
2023/07/12 00:28:49;;;;;;;;;;;;;;;22.91;71.01;97849.78;5010465;28;19935;-61
2023/07/12 00:31:39;;;;;;;;;;;;;;;22.85;71.91;97839.44;5006897;28;19936;-63
2023/07/12 00:34:28;;;;;;;;;;;;;;;22.94;71.02;97826.81;5012845;28;19960;-58
2023/07/12 00:37:17;;;;;;;;;;;;;;;22.91;71.86;97822.09;5000734;28;19926;-60
2023/07/12 00:40:10;;;;;;;;;;;;;;;22.95;70.49;97794.38;5003874;28;20204;-59
2023/07/12 00:42:59;;;;;;;;;;;;;;;22.84;70.82;97782.47;5002852;28;19925;-59
2023/07/12 00:45:48;;;;;;;;;;;;;;;22.84;71.29;97774.94;4998352;28;19926;-62
2023/07/12 00:48:37;;;;;;;;;;;;;;;22.79;71.01;97767.03;4997169;28;19934;-60
2023/07/12 00:51:33;;;;;;;;;;;;;;;22.65;72.62;97750.44;4997101;28;19932;-58
2023/07/12 00:54:24;;;;;;;;;;;;;;;22.70;71.33;97725.13;4998523;28;19926;-59
2023/07/12 00:57:12;;;;;;;;;;;;;;;22.80;71.19;97699.41;4996761;28;19929;-58
2023/07/12 01:00:02;;;;;;;;;;;;;;;22.86;71.06;97670.09;5001294;28;19925;-60
2023/07/12 01:02:52;;;;;;;;;;;;;;;22.70;70.73;97630.97;5000236;28;19925;-59
2023/07/12 01:05:40;;;;;;;;;;;;;;;22.71;70.37;97607.63;5003321;28;20398;-59
2023/07/12 01:08:29;;;;;;;;;;;;;;;21.63;74.59;97548.75;5001507;28;19925;-58
2023/07/12 01:11:20;;;;;;;;;;;;;;;21.91;73.48;97523.06;4992693;28;19929;-58
2023/07/12 01:14:12;;;;;;;;;;;;;;;22.08;73.58;97501.31;5002836;28;19925;-59
2023/07/12 01:17:02;;;;;;;;;;;;;;;22.20;74.24;97520.31;5000519;28;19926;-62
2023/07/12 01:19:50;;;;;;;;;;;;;;;22.23;74.18;97550.75;5003801;28;20539;-60
2023/07/12 01:22:40;;;;;;;;;;;;;;;22.39;73.00;97552.31;5000475;28;20455;-61
2023/07/12 01:25:36;;;;;;;;;;;;;;;22.29;73.49;97544.81;5016810;28;20401;-58
2023/07/12 01:28:24;;;;;;;;;;;;;;;22.34;73.20;97545.19;4994129;28;19925;-60
2023/07/12 01:31:12;;;;;;;;;;;;;;;22.42;71.89;97535.69;5003246;28;19929;-59
2023/07/12 01:34:00;;;;;;;;;;;;;;;22.36;71.41;97503.28;5009794;28;19936;-59
2023/07/12 01:36:51;;;;;;;;;;;;;;;22.32;71.59;97486.69;5004664;28;20425;-63
2023/07/12 01:39:41;;;;;;;;;;;;;;;22.27;71.25;97455.88;4997890;28;19933;-58
2023/07/12 01:42:31;;;;;;;;;;;;;;;22.21;72.22;97472.06;5005214;28;19925;-60
2023/07/12 01:45:19;;;;;;;;;;;;;;;22.35;71.05;97466.50;5002636;28;19940;-61
2023/07/12 01:48:08;;;;;;;;;;;;;;;22.40;70.98;97462.53;5005272;28;20454;-60
2023/07/12 01:50:57;;;;;;;;;;;;;;;22.43;70.47;97465.31;5000997;28;20020;-60
2023/07/12 01:53:45;;;;;;;;;;;;;;;22.30;70.14;97486.28;5002737;28;20783;-60
2023/07/12 01:56:35;;;;;;;;;;;;;;;22.30;70.42;97489.06;5003191;28;19930;-57
2023/07/12 01:59:23;;;;;;;;;;;;;;;22.31;70.72;97484.31;5003482;28;19975;-59
2023/07/12 02:02:12;;;;;;;;;;;;;;;22.32;71.46;97514.38;5005103;28;19926;-58
2023/07/12 02:05:00;;;;;;;;;;;;;;;22.27;70.89;97525.84;5008798;28;20015;-62
2023/07/12 02:07:49;;;;;;;;;;;;;;;21.98;71.50;97495.41;4996291;28;20735;-59
2023/07/12 02:10:37;;;;;;;;;;;;;;;22.18;71.07;97517.16;4998539;28;19934;-58
2023/07/12 02:13:26;;;;;;;;;;;;;;;22.15;70.96;97521.50;5000576;28;19952;-64
2023/07/12 02:16:14;;;;;;;;;;;;;;;21.91;71.92;97503.72;5019245;28;19934;-59
2023/07/12 02:19:03;;;;;;;;;;;;;;;22.05;72.38;97489.09;5006338;28;19927;-62
2023/07/12 02:21:51;;;;;;;;;;;;;;;22.06;71.99;97485.13;5002586;28;20354;-62
2023/07/12 02:24:40;;;;;;;;;;;;;;;22.07;71.84;97483.16;5019396;28;19930;-60
2023/07/12 02:27:28;;;;;;;;;;;;;;;21.85;72.42;97472.13;5004991;28;19968;-60
2023/07/12 02:30:18;;;;;;;;;;;;;;;21.89;72.74;97459.09;5006246;28;20028;-63
2023/07/12 02:33:06;;;;;;;;;;;;;;;21.95;72.13;97449.19;4999731;28;20399;-59
2023/07/12 02:35:54;;;;;;;;;;;;;;;21.91;71.94;97450.38;5008048;28;19938;-58
2023/07/12 02:38:43;;;;;;;;;;;;;;;21.83;72.65;97468.16;5002828;28;19929;-59
2023/07/12 02:41:31;;;;;;;;;;;;;;;21.95;71.13;97479.63;5005023;28;20468;-61
2023/07/12 02:44:19;;;;;;;;;;;;;;;21.84;71.62;97486.31;5005576;28;19960;-60
2023/07/12 02:47:09;;;;;;;;;;;;;;;21.80;71.45;97488.31;5003431;28;19934;-59
2023/07/12 02:49:57;;;;;;;;;;;;;;;21.81;70.92;97485.16;5008017;28;19926;-62
2023/07/12 02:52:46;;;;;;;;;;;;;;;21.84;71.37;97495.44;4998161;28;19977;-59
2023/07/12 02:55:36;;;;;;;;;;;;;;;21.88;70.81;97468.53;5007005;28;19967;-60
2023/07/12 02:58:24;;;;;;;;;;;;;;;21.89;70.85;97470.16;5007579;28;20326;-59
2023/07/12 03:01:12;;;;;;;;;;;;;;;21.83;71.21;97468.94;5000897;28;20374;-60
2023/07/12 03:04:03;;;;;;;;;;;;;;;21.90;70.88;97470.94;5006879;28;19926;-63
2023/07/12 03:06:51;;;;;;;;;;;;;;;21.85;70.82;97469.34;5034781;28;19925;-62
2023/07/12 03:09:39;;;;;;;;;;;;;;;21.80;71.23;97471.72;5014018;28;20012;-58
2023/07/12 03:12:28;;;;;;;;;;;;;;;21.74;71.64;97478.84;5011660;28;19940;-60
2023/07/12 03:15:16;;;;;;;;;;;;;;;21.80;70.45;97472.50;5006617;28;19934;-62
2023/07/12 03:18:05;;;;;;;;;;;;;;;21.73;71.27;97478.03;5003916;28;19925;-59
2023/07/12 03:20:55;;;;;;;;;;;;;;;21.69;71.12;97466.19;5000025;28;19968;-58
2023/07/12 03:23:43;;;;;;;;;;;;;;;21.71;70.74;97478.44;5005783;28;19936;-58
2023/07/12 03:26:32;;;;;;;;;;;;;;;21.68;71.12;97484.78;5000952;28;19969;-61
2023/07/12 03:29:20;;;;;;;;;;;;;;;21.65;71.31;97476.47;5002960;28;20233;-61
2023/07/12 03:32:09;;;;;;;;;;;;;;;21.63;71.27;97479.63;5005373;28;19930;-64
2023/07/12 03:34:57;;;;;;;;;;;;;;;21.70;70.32;97487.13;5002558;28;19940;-58
2023/07/12 03:37:47;;;;;;;;;;;;;;;21.53;71.47;97485.16;5009137;28;20345;-59
2023/07/12 03:40:36;;;;;;;;;;;;;;;21.57;71.17;97483.16;5003849;28;19937;-58
2023/07/12 03:43:24;;;;;;;;;;;;;;;21.59;71.26;97478.03;5006530;28;19930;-60
2023/07/12 03:46:12;;;;;;;;;;;;;;;21.57;71.35;97469.34;5000737;28;20016;-61
2023/07/12 03:49:00;;;;;;;;;;;;;;;21.56;71.21;97474.09;5005635;28;19930;-58
2023/07/12 03:51:49;;;;;;;;;;;;;;;21.54;70.99;97484.75;4991954;28;19960;-58
2023/07/12 03:54:38;;;;;;;;;;;;;;;21.48;71.48;97480.03;5006899;28;19929;-60
2023/07/12 03:57:26;;;;;;;;;;;;;;;21.43;71.89;97484.75;5005343;28;19930;-60
2023/07/12 04:00:15;;;;;;;;;;;;;;;21.38;72.22;97492.63;5005526;28;19929;-58
2023/07/12 04:03:06;;;;;;;;;;;;;;;21.48;71.56;97499.38;4996115;28;19930;-61
2023/07/12 04:05:55;;;;;;;;;;;;;;;21.53;71.20;97496.22;5000525;28;20310;-58
2023/07/12 04:08:43;;;;;;;;;;;;;;;21.55;71.57;97482.78;5003618;28;19930;-62
2023/07/12 04:11:33;;;;;;;;;;;;;;;21.54;71.64;97475.69;5005007;28;19979;-60
2023/07/12 04:14:21;;;;;;;;;;;;;;;21.59;70.80;97475.28;5003582;28;19933;-59
2023/07/12 04:17:09;;;;;;;;;;;;;;;21.64;70.54;97488.72;5004554;28;19937;-59
2023/07/12 04:20:00;;;;;;;;;;;;;;;21.69;71.01;97491.09;5003182;28;20093;-62
2023/07/12 04:22:49;;;;;;;;;;;;;;;21.61;70.56;97487.50;5000660;28;19952;-59
2023/07/12 04:25:37;;;;;;;;;;;;;;;21.60;70.82;97498.97;5002601;28;19933;-61
2023/07/12 04:28:27;;;;;;;;;;;;;;;21.56;71.06;97498.16;5001255;28;20261;-60
2023/07/12 04:31:16;;;;;;;;;;;;;;;21.64;70.91;97497.78;5001893;28;20063;-61
2023/07/12 04:34:04;;;;;;;;;;;;;;;21.50;71.82;97519.09;5013732;28;19926;-61
2023/07/12 04:36:53;;;;;;;;;;;;;;;21.57;71.35;97519.09;5000168;28;20401;-61
2023/07/12 04:39:41;;;;;;;;;;;;;;;21.54;71.70;97511.59;5007763;28;19925;-57
2023/07/12 04:42:29;;;;;;;;;;;;;;;21.69;70.73;97527.81;5005307;28;20383;-59
2023/07/12 04:45:19;;;;;;;;;;;;;;;21.71;70.09;97528.19;4995653;28;19930;-59
2023/07/12 04:48:09;;;;;;;;;;;;;;;21.71;70.32;97541.22;4991964;28;20526;-58
2023/07/12 04:50:57;;;;;;;;;;;;;;;21.53;71.01;97544.00;5001333;28;20701;-58
2023/07/12 04:53:47;;;;;;;;;;;;;;;21.41;71.12;97539.63;4997306;28;20446;-58
2023/07/12 04:56:35;;;;;;;;;;;;;;;21.52;71.29;97545.19;5000177;28;19925;-59
2023/07/12 04:59:23;;;;;;;;;;;;;;;21.70;70.82;97536.91;5000902;28;19944;-58
2023/07/12 05:02:13;;;;;;;;;;;;;;;21.74;71.00;97539.66;4996014;28;19934;-58
2023/07/12 05:05:01;;;;;;;;;;;;;;;21.78;70.97;97544.00;4999603;28;20382;-58
2023/07/12 05:07:49;;;;;;;;;;;;;;;21.84;71.04;97545.22;5003131;28;19937;-59
2023/07/12 05:10:38;;;;;;;;;;;;;;;21.88;71.12;97537.69;5015198;28;19929;-61
2023/07/12 05:13:26;;;;;;;;;;;;;;;21.97;70.74;97543.63;4998808;28;19934;-62
2023/07/12 05:16:14;;;;;;;;;;;;;;;21.96;70.13;97553.09;5000888;28;19933;-60
2023/07/12 05:19:04;;;;;;;;;;;;;;;21.89;71.18;97555.06;5003949;28;19926;-59
2023/07/12 05:21:52;;;;;;;;;;;;;;;21.98;71.08;97547.94;5003644;28;19929;-63
2023/07/12 05:24:41;;;;;;;;;;;;;;;22.07;69.73;97553.09;4998434;28;19975;-58
2023/07/12 05:27:29;;;;;;;;;;;;;;;22.00;69.58;97555.06;5001748;28;20060;-59
2023/07/12 05:30:17;;;;;;;;;;;;;;;22.05;70.28;97549.13;5014626;28;20015;-58
2023/07/12 05:33:06;;;;;;;;;;;;;;;22.09;69.95;97549.94;5002570;28;20654;-59
2023/07/12 05:35:55;;;;;;;;;;;;;;;21.99;70.23;97545.97;5002071;28;20023;-60
2023/07/12 05:38:43;;;;;;;;;;;;;;;22.09;70.05;97536.09;4997294;28;19933;-60
2023/07/12 05:41:32;;;;;;;;;;;;;;;22.15;70.01;97537.31;4992242;28;19937;-58
2023/07/12 05:44:20;;;;;;;;;;;;;;;22.11;69.91;97536.53;5000605;28;19998;-57
2023/07/12 05:47:08;;;;;;;;;;;;;;;22.12;70.57;97529.81;5004916;28;20624;-61
2023/07/12 05:49:56;;;;;;;;;;;;;;;22.20;69.88;97534.13;5002107;28;19925;-59
2023/07/12 05:52:46;;;;;;;;;;;;;;;22.28;68.38;97524.66;5004810;28;19981;-58
2023/07/12 05:55:36;;;;;;;;;;;;;;;22.46;68.29;97532.91;4990704;28;20076;-58
2023/07/12 05:58:24;;;;;;;;;;;;;;;22.49;67.34;97535.69;4991778;28;19960;-58
2023/07/12 06:01:12;;;;;;;;;;;;;;;22.59;67.50;97536.06;4995276;28;19929;-59
2023/07/12 06:04:00;;;;;;;;;;;;;;;22.60;67.94;97526.56;4998876;28;19940;-59
2023/07/12 06:06:50;;;;;;;;;;;;;;;22.27;68.03;97536.13;5000106;28;19925;-57
2023/07/12 06:09:39;;;;;;;;;;;;;;;22.29;68.63;97537.28;5003352;28;20575;-58
2023/07/12 06:12:27;;;;;;;;;;;;;;;22.51;68.67;97538.03;4991677;28;20016;-61
2023/07/12 06:15:16;;;;;;;;;;;;;;;22.36;68.94;97540.03;4998940;28;20307;-58
2023/07/12 06:18:04;;;;;;;;;;;;;;;22.51;68.31;97529.72;4999573;28;19926;-58
2023/07/12 06:20:55;;;;;;;;;;;;;;;22.69;67.84;97543.53;5005531;28;19929;-58
2023/07/12 06:23:43;;;;;;;;;;;;;;;22.68;67.67;97536.41;5007795;28;19929;-59
2023/07/12 06:26:33;;;;;;;;;;;;;;;22.74;67.35;97540.34;4994081;28;19925;-56
2023/07/12 06:29:21;;;;;;;;;;;;;;;22.62;67.73;97544.34;4998764;28;19973;-57
2023/07/12 06:32:10;;;;;;;;;;;;;;;22.53;69.04;97555.06;5005916;28;19925;-58
2023/07/12 06:34:58;;;;;;;;;;;;;;;22.56;68.44;97557.00;5005456;28;20051;-63
2023/07/12 06:37:46;;;;;;;;;;;;;;;22.73;68.15;97549.84;5003981;28;20499;-61
2023/07/12 06:40:34;;;;;;;;;;;;;;;22.85;68.09;97552.19;4992173;28;19932;-60
2023/07/12 06:43:24;;;;;;;;;;;;;;;22.96;66.22;97547.44;5000278;28;20005;-60
2023/07/12 06:46:13;;;;;;;;;;;;;;;23.02;66.61;97549.78;5000939;28;19964;-59
2023/07/12 06:49:03;;;;;;;;;;;;;;;23.16;65.27;97552.47;4988829;28;19940;-64
2023/07/12 06:51:51;;;;;;;;;;;;;;;23.23;66.12;97558.00;5001449;28;20379;-65
2023/07/12 06:54:40;;;;;;;;;;;;;;;23.19;65.95;97557.22;5003323;28;20649;-61
2023/07/12 06:57:29;;;;;;;;;;;;;;;23.33;65.51;97548.84;5002387;28;19960;-60
2023/07/12 07:00:22;;;;;;;;;;;;;;;23.38;65.04;97537.31;4998610;28;19930;-61
2023/07/12 07:03:10;;;;;;;;;;;;;;;23.52;63.13;97528.91;5001913;28;20363;-62
2023/07/12 07:06:00;;;;;;;;;;;;;;;23.66;62.70;97530.84;5008901;28;19929;-60
2023/07/12 07:08:48;;;;;;;;;;;;;;;23.66;62.59;97528.06;5005996;28;19936;-63
2023/07/12 07:11:36;;;;;;;;;;;;;;;23.77;62.43;97522.44;5005535;28;20527;-60
2023/07/12 07:14:25;;;;;;;;;;;;;;;23.76;61.76;97532.75;4999231;28;20371;-59
2023/07/12 07:17:14;;;;;;;;;;;;;;;23.77;61.74;97531.53;5004643;28;19936;-59
2023/07/12 07:20:03;;;;;;;;;;;;;;;23.87;61.51;97554.84;5007966;28;19929;-65
2023/07/12 07:22:51;;;;;;;;;;;;;;;23.91;60.81;97543.72;5007061;28;19925;-61
2023/07/12 07:25:39;;;;;;;;;;;;;;;23.95;60.89;97550.03;4991834;28;20009;-62
2023/07/12 07:28:27;;;;;;;;;;;;;;;24.13;60.51;97555.41;4993328;28;19925;-61
2023/07/12 07:31:16;;;;;;;;;;;;;;;24.16;60.07;97563.72;4991729;28;20580;-61
2023/07/12 07:34:06;;;;;;;;;;;;;;;24.25;60.06;97568.81;5002182;28;19988;-61
2023/07/12 07:36:55;;;;;;;;;;;;;;;24.38;60.46;97569.09;5004954;28;19945;-63
2023/07/12 07:39:43;;;;;;;;;;;;;;;24.38;60.43;97569.91;5017353;28;19937;-61
2023/07/12 07:42:31;;;;;;;;;;;;;;;24.40;59.72;97575.06;5005472;28;19937;-60
2023/07/12 07:45:19;;;;;;;;;;;;;;;24.41;59.12;97590.50;5004669;28;19937;-61
2023/07/12 07:48:07;;;;;;;;;;;;;;;24.51;58.87;97589.63;5005659;28;20311;-61
2023/07/12 07:50:57;;;;;;;;;;;;;;;24.52;58.79;97588.41;5007765;28;20310;-60
2023/07/12 07:53:45;;;;;;;;;;;;;;;24.43;59.06;97601.97;5003919;28;19930;-63
2023/07/12 07:56:36;;;;;;;;;;;;;;;24.46;59.10;97598.41;5006477;28;19926;-61
2023/07/12 07:59:24;;;;;;;;;;;;;;;24.46;59.38;97590.84;5001434;28;19932;-62
2023/07/12 08:02:13;;;;;;;;;;;;;;;24.50;58.59;97591.63;4999338;28;20012;-60
2023/07/12 08:05:03;;;;;;;;;;;;;;;24.56;60.15;97589.19;5007162;28;20437;-59
2023/07/12 08:07:52;;;;;;;;;;;;;;;24.58;59.53;97591.53;5007395;28;19926;-61
2023/07/12 08:10:41;;;;;;;;;;;;;;;24.59;59.12;97595.88;4991229;28;19940;-61
2023/07/12 08:13:29;;;;;;;;;;;;;;;24.61;58.91;97590.69;5001725;28;19925;-60
2023/07/12 08:16:17;;;;;;;;;;;;;;;24.68;58.84;97596.97;5015406;28;19925;-60
2023/07/12 08:19:06;;;;;;;;;;;;;;;24.69;58.42;97597.78;4999899;28;19929;-61
2023/07/12 08:22:06;;;;;;;;;;;;;;;24.69;59.14;97614.44;5009758;28;19935;-61
2023/07/12 08:24:55;;;;;;;;;;;;;;;24.68;58.72;97612.88;5005760;28;19933;-59
2023/07/12 08:27:43;;;;;;;;;;;;;;;24.62;58.45;97622.84;5011191;28;20369;-61
2023/07/12 08:30:32;;;;;;;;;;;;;;;24.54;58.78;97625.66;5002440;28;20006;-61
2023/07/12 08:33:20;;;;;;;;;;;;;;;24.53;59.07;97629.66;4995021;28;20004;-62
2023/07/12 08:36:08;;;;;;;;;;;;;;;24.54;58.69;97631.22;4999090;28;19933;-64
2023/07/12 08:38:56;;;;;;;;;;;;;;;24.56;58.57;97633.63;5000719;28;19936;-61
2023/07/12 08:41:46;;;;;;;;;;;;;;;24.62;58.29;97628.41;5005241;28;20018;-60
2023/07/12 08:44:34;;;;;;;;;;;;;;;24.68;58.16;97632.31;5006168;28;20016;-63
2023/07/12 08:47:24;;;;;;;;;;;;;;;24.75;57.81;97626.66;5006959;28;19933;-60
2023/07/12 08:50:13;;;;;;;;;;;;;;;24.80;57.77;97637.34;4995267;28;19929;-60
2023/07/12 08:53:01;;;;;;;;;;;;;;;24.93;57.01;97630.06;5005187;28;20378;-63
2023/07/12 08:55:50;;;;;;;;;;;;;;;24.80;57.36;97626.22;5003164;28;20410;-60
2023/07/12 08:58:41;;;;;;;;;;;;;;;24.81;57.38;97622.25;4998023;28;20407;-61
2023/07/12 09:01:36;;;;;;;;;;;;;;;24.88;57.04;97622.19;4999437;28;19933;-60
2023/07/12 09:04:25;;;;;;;;;;;;;;;24.94;56.40;97617.75;4997374;28;20012;-60
2023/07/12 09:07:14;;;;;;;;;;;;;;;24.90;57.03;97628.09;5006674;28;20020;-60
2023/07/12 09:10:02;;;;;;;;;;;;;;;24.95;56.47;97622.09;5005708;28;19940;-60
2023/07/12 09:12:51;;;;;;;;;;;;;;;24.98;57.08;97615.72;5006117;28;19941;-60
2023/07/12 09:15:45;;;;;;;;;;;;;;;24.98;56.72;97628.81;5003683;28;19926;-60
2023/07/12 09:18:34;;;;;;;;;;;;;;;24.91;56.81;97632.44;5004012;28;20415;-61
2023/07/12 09:21:23;;;;;;;;;;;;;;;24.95;57.14;97636.00;5006027;28;19964;-62
2023/07/12 09:24:13;;;;;;;;;;;;;;;25.01;56.86;97625.22;4996276;28;19933;-60
2023/07/12 09:27:04;;;;;;;;;;;;;;;24.94;56.85;97637.19;5004814;28;19932;-62
2023/07/12 09:30:02;;;;;;;;;;;;;;;24.85;56.83;97631.34;5005985;28;19929;-62
2023/07/12 09:32:53;;;;;;;;;;;;;;;24.92;57.11;97628.47;5001199;28;19925;-62
2023/07/12 09:35:44;;;;;;;;;;;;;;;25.03;56.86;97629.13;5003320;28;19925;-61
2023/07/12 09:38:35;;;;;;;;;;;;;;;25.18;56.29;97648.47;5011381;28;19932;-61
2023/07/12 09:41:24;;;;;;;;;;;;;;;25.12;57.23;97645.34;5011778;28;19926;-63
2023/07/12 09:44:12;;;;;;;;;;;;;;;25.16;58.17;97654.47;4998591;28;19929;-62
2023/07/12 09:47:01;;;;;;;;;;;;;;;25.15;56.37;97646.53;4996537;28;20071;-64
2023/07/12 09:49:52;;;;;;;;;;;;;;;25.22;55.80;97646.44;5006879;28;20342;-61
2023/07/12 09:52:45;;;;;;;;;;;;;;;25.25;54.81;97645.63;5001280;28;19933;-60
2023/07/12 09:55:36;;;;;;;;;;;;;;;25.33;55.42;97652.66;5004763;28;19937;-62
2023/07/12 09:58:25;;;;;;;;;;;;;;;25.44;52.87;97653.31;5004632;28;19932;-61
2023/07/12 10:01:15;;;;;;;;;;;;;;;25.40;54.88;97640.66;4993037;28;20326;-60
2023/07/12 10:04:20;;;;;;;;;;;;;;;25.37;53.71;97639.50;5002818;28;20337;-60
2023/07/12 10:07:13;;;;;;;;;;;;;;;25.44;52.66;97633.84;5005020;28;19929;-62
2023/07/12 10:10:02;;;;;;;;;;;;;;;25.48;52.32;97642.16;5003379;28;19929;-61
2023/07/12 10:12:52;;;;;;;;;;;;;;;25.51;51.49;97639.31;5001242;28;20283;-61
2023/07/12 10:15:40;;;;;;;;;;;;;;;25.50;50.96;97648.88;4999126;28;20003;-60
2023/07/12 10:18:30;;;;;;;;;;;;;;;25.47;49.72;97646.16;5003375;28;19926;-61
2023/07/12 10:21:19;;;;;;;;;;;;;;;25.41;49.50;97648.59;4997012;28;19929;-59
2023/07/12 10:24:13;;;;;;;;;;;;;;;25.44;49.25;97647.75;5001287;28;20386;-62
2023/07/12 10:27:01;;;;;;;;;;;;;;;25.38;49.11;97643.88;5013230;28;19929;-61
2023/07/12 10:29:52;;;;;;;;;;;;;;;25.46;48.52;97634.25;4996873;28;19936;-61
2023/07/12 10:32:41;;;;;;;;;;;;;;;25.50;47.05;97640.53;5001931;28;20019;-61
2023/07/12 10:35:32;;;;;;;;;;;;;;;25.59;47.25;97637.25;5002666;28;20003;-61
2023/07/12 10:38:23;;;;;;;;;;;;;;;25.56;48.87;97636.06;5003284;28;19937;-61
2023/07/12 10:41:13;;;;;;;;;;;;;;;25.53;48.01;97644.47;5002841;28;20298;-62
2023/07/12 10:44:05;;;;;;;;;;;;;;;25.56;46.24;97633.28;5001133;28;19925;-58
2023/07/12 10:46:53;;;;;;;;;;;;;;;25.61;46.18;97630.03;5002658;28;19929;-59
2023/07/12 10:49:43;;;;;;;;;;;;;;;25.84;46.00;97623.81;4997749;28;19975;-57
2023/07/12 10:52:32;;;;;;;;;;;;;;;25.77;46.65;97631.47;5009916;28;20298;-57
2023/07/12 10:55:21;;;;;;;;;;;;;;;25.72;46.81;97640.25;5009128;28;19936;-56
2023/07/12 10:58:30;;;;;;;;;;;;;;;25.85;46.16;97638.50;5008545;28;20046;-56
2023/07/12 11:01:38;;;;;;;;;;;;;;;25.99;45.37;97631.94;5004644;28;19926;-56
2023/07/12 11:04:34;;;;;;;;;;;;;;;26.04;46.06;97632.25;5000566;28;20740;-56
2023/07/12 11:07:34;;;;;;;;;;;;;;;26.05;46.14;97619.91;4997491;28;19929;-57
2023/07/12 11:10:24;;;;;;;;;;;;;;;25.97;46.11;97623.22;5008231;28;19933;-57
2023/07/12 11:13:13;;;;;;;;;;;;;;;25.96;46.33;97622.44;5007552;28;20326;-56
2023/07/12 11:16:03;;;;;;;;;;;;;;;25.99;45.51;97629.94;5008855;28;20043;-57
2023/07/12 11:18:52;;;;;;;;;;;;;;;26.08;45.98;97630.19;5009023;28;20495;-57
2023/07/12 11:21:48;;;;;;;;;;;;;;;26.06;45.02;97627.06;5009056;28;19925;-56
2023/07/12 11:24:37;;;;;;;;;;;;;;;26.10;45.57;97622.22;5009039;28;20295;-56
2023/07/12 11:27:33;;;;;;;;;;;;;;;26.20;44.89;97625.25;5006988;28;19925;-57
2023/07/12 11:30:25;;;;;;;;;;;;;;;26.28;45.92;97624.72;5007685;28;20295;-56
2023/07/12 11:33:19;;;;;;;;;;;;;;;26.41;44.27;97615.75;5000317;28;20574;-56
2023/07/12 11:36:08;;;;;;;;;;;;;;;26.28;44.13;97621.16;5005698;28;19937;-57
2023/07/12 11:38:58;;;;;;;;;;;;;;;26.19;43.95;97624.47;5002845;28;19940;-56
2023/07/12 11:41:54;;;;;;;;;;;;;;;26.24;43.75;97631.56;4991473;28;19934;-56
2023/07/12 11:44:42;;;;;;;;;;;;;;;26.33;44.42;97631.81;5005729;28;19937;-57
2023/07/12 11:47:30;;;;;;;;;;;;;;;26.38;43.85;97617.41;5007397;28;19925;-57
2023/07/12 11:50:20;;;;;;;;;;;;;;;26.44;44.12;97634.44;4998012;28;19930;-56
2023/07/12 11:53:10;;;;;;;;;;;;;;;26.43;43.22;97633.66;5002044;28;19925;-57
2023/07/12 11:55:59;;;;;;;;;;;;;;;26.48;43.22;97635.97;4994260;28;19936;-57
2023/07/12 11:58:48;;;;;;;;;;;;;;;26.57;43.87;97640.97;4993624;28;20039;-56
2023/07/12 12:01:37;;;;;;;;;;;;;;;26.69;43.13;97629.25;5002554;28;19932;-59
2023/07/12 12:04:26;;;;;;;;;;;;;;;26.59;43.70;97635.78;5014933;28;19926;-58
2023/07/12 12:07:17;;;;;;;;;;;;;;;26.71;43.63;97637.94;5004241;28;20064;-58
2023/07/12 12:10:06;;;;;;;;;;;;;;;26.73;42.30;97641.09;5010471;28;20331;-58
2023/07/12 12:12:57;;;;;;;;;;;;;;;26.70;43.14;97636.38;5007574;28;19932;-57
2023/07/12 12:15:47;;;;;;;;;;;;;;;26.80;42.72;97637.41;5009677;28;20032;-58
2023/07/12 12:18:37;;;;;;;;;;;;;;;26.87;42.31;97632.47;5004788;28;19930;-57
2023/07/12 12:21:25;;;;;;;;;;;;;;;26.88;42.21;97622.91;5000302;28;20394;-57
2023/07/12 12:24:16;;;;;;;;;;;;;;;26.83;42.04;97630.97;4995661;28;19925;-59
2023/07/12 12:27:10;;;;;;;;;;;;;;;26.61;42.11;97631.34;5012073;28;19932;-57
2023/07/12 12:30:18;;;;;;;;;;;;;;;26.59;43.28;97631.00;5014134;28;19925;-61
2023/07/12 12:33:07;;;;;;;;;;;;;;;26.56;42.78;97626.25;5006777;28;20393;-57
2023/07/12 12:35:58;;;;;;;;;;;;;;;26.60;43.08;97620.63;5004939;28;19930;-56
2023/07/12 12:38:56;;;;;;;;;;;;;;;26.80;43.25;97612.31;5009362;28;19931;-56
2023/07/12 12:41:50;;;;;;;;;;;;;;;26.77;42.18;97608.38;4999670;28;19929;-58
2023/07/12 12:44:38;;;;;;;;;;;;;;;26.91;41.38;97610.13;5000438;28;19934;-58
2023/07/12 12:47:30;;;;;;;;;;;;;;;26.97;39.64;97605.63;5003120;28;19929;-58
2023/07/12 12:50:19;;;;;;;;;;;;;;;27.11;40.95;97591.44;4995968;28;19975;-60
2023/07/12 12:53:12;;;;;;;;;;;;;;;27.35;40.32;97592.13;4996699;28;20508;-56
2023/07/12 12:56:19;;;;;;;;;;;;;;;27.24;39.98;97597.13;4993640;28;20163;-57
2023/07/12 12:59:10;;;;;;;;;;;;;;;27.11;40.16;97599.81;4995059;28;20869;-57
2023/07/12 13:02:02;;;;;;;;;;;;;;;26.92;41.05;97603.31;4995967;28;19941;-59
2023/07/12 13:04:54;;;;;;;;;;;;;;;26.89;40.30;97602.16;4997708;28;19940;-58
2023/07/12 13:07:49;;;;;;;;;;;;;;;26.83;40.92;97589.16;5004368;28;19933;-58
2023/07/12 13:10:57;;;;;;;;;;;;;;;26.96;40.35;97598.47;4990087;28;19933;-57
2023/07/12 13:13:48;;;;;;;;;;;;;;;27.13;40.13;97585.41;4989435;28;20683;-59
2023/07/12 13:16:40;;;;;;;;;;;;;;;27.16;39.72;97595.69;4994202;28;19925;-57
2023/07/12 13:19:32;;;;;;;;;;;;;;;27.19;39.52;97602.44;5001123;28;20015;-57
2023/07/12 13:22:22;;;;;;;;;;;;;;;27.21;39.67;97586.81;5003770;28;19929;-57
2023/07/12 13:25:11;;;;;;;;;;;;;;;27.30;40.21;97594.63;5010318;28;19980;-57
2023/07/12 13:28:00;;;;;;;;;;;;;;;27.35;39.03;97592.13;4998828;28;19933;-58
2023/07/12 13:30:48;;;;;;;;;;;;;;;27.19;39.66;97602.44;5001110;28;19936;-57
2023/07/12 13:33:37;;;;;;;;;;;;;;;27.12;39.13;97590.22;5006181;28;19932;-57
2023/07/12 13:36:29;;;;;;;;;;;;;;;27.10;38.73;97587.03;5008318;28;19929;-58
2023/07/12 13:39:20;;;;;;;;;;;;;;;27.14;38.51;97581.41;5013956;28;19926;-57
2023/07/12 13:42:11;;;;;;;;;;;;;;;27.28;37.53;97581.13;5004495;28;20299;-57
2023/07/12 13:45:02;;;;;;;;;;;;;;;27.27;38.35;97578.75;4997805;28;20621;-57
2023/07/12 13:48:05;;;;;;;;;;;;;;;27.25;38.70;97581.97;4994268;28;19929;-58
2023/07/12 13:50:53;;;;;;;;;;;;;;;27.37;38.12;97572.16;5006544;28;20063;-57
2023/07/12 13:53:42;;;;;;;;;;;;;;;27.50;37.80;97563.91;5004547;28;19952;-57
2023/07/12 13:56:31;;;;;;;;;;;;;;;27.39;37.53;97575.31;5002015;28;20033;-57
2023/07/12 13:59:23;;;;;;;;;;;;;;;27.32;36.85;97564.28;5005086;28;20409;-58
2023/07/12 14:02:16;;;;;;;;;;;;;;;27.38;36.83;97559.81;4996062;28;19925;-58
2023/07/12 14:05:08;;;;;;;;;;;;;;;27.46;36.71;97552.84;5005412;28;20043;-58
2023/07/12 14:08:00;;;;;;;;;;;;;;;27.59;36.40;97566.88;5007394;28;20566;-59
2023/07/12 14:10:52;;;;;;;;;;;;;;;27.48;35.92;97567.13;4998128;28;20434;-57
2023/07/12 14:13:41;;;;;;;;;;;;;;;27.45;36.14;97568.00;5004949;28;19933;-58
2023/07/12 14:16:34;;;;;;;;;;;;;;;27.47;35.20;97562.78;4992516;28;19965;-58
2023/07/12 14:19:22;;;;;;;;;;;;;;;27.64;35.39;97571.94;5004680;28;19925;-58
2023/07/12 14:22:12;;;;;;;;;;;;;;;27.65;35.50;97581.91;4993356;28;19926;-58
2023/07/12 14:25:00;;;;;;;;;;;;;;;27.69;35.79;97588.19;4999975;28;19934;-59
2023/07/12 14:27:48;;;;;;;;;;;;;;;27.76;34.76;97590.88;4998126;28;19933;-58
2023/07/12 14:30:38;;;;;;;;;;;;;;;27.66;34.60;97584.28;4999208;28;19933;-61
2023/07/12 14:33:30;;;;;;;;;;;;;;;27.68;34.80;97581.03;4998458;28;20386;-60
2023/07/12 14:36:19;;;;;;;;;;;;;;;27.52;35.37;97586.59;5007596;28;19937;-56
2023/07/12 14:39:08;;;;;;;;;;;;;;;27.50;33.98;97597.41;5000307;28;19929;-58
2023/07/12 14:41:56;;;;;;;;;;;;;;;27.46;36.85;97591.88;5003493;28;19968;-56
2023/07/12 14:44:44;;;;;;;;;;;;;;;27.48;34.24;97589.44;5002616;28;19936;-57